sensor_id;sensor_type;location;lat;lon;timestamp;P1;durP1;ratioP1;P2;durP2;ratioP2
757;SDS011;363;48.764;9.172;2023-06-10T00:01:24;9.60;;;8.80;;
757;SDS011;363;48.764;9.172;2023-06-10T00:03:50;9.03;;;8.40;;
757;SDS011;363;48.764;9.172;2023-06-10T00:06:16;9.52;;;8.82;;
757;SDS011;363;48.764;9.172;2023-06-10T00:08:42;9.83;;;9.03;;
757;SDS011;363;48.764;9.172;2023-06-10T00:11:08;9.80;;;9.00;;
757;SDS011;363;48.764;9.172;2023-06-10T00:13:34;9.17;;;8.47;;
757;SDS011;363;48.764;9.172;2023-06-10T00:15:59;9.57;;;8.77;;
757;SDS011;363;48.764;9.172;2023-06-10T00:18:25;9.00;;;8.27;;
757;SDS011;363;48.764;9.172;2023-06-10T00:20:52;10.18;;;9.25;;
757;SDS011;363;48.764;9.172;2023-06-10T00:23:20;8.60;;;8.00;;
757;SDS011;363;48.764;9.172;2023-06-10T00:25:46;9.90;;;9.18;;
757;SDS011;363;48.764;9.172;2023-06-10T00:28:11;9.13;;;8.33;;
757;SDS011;363;48.764;9.172;2023-06-10T00:30:38;9.30;;;8.60;;
757;SDS011;363;48.764;9.172;2023-06-10T00:33:03;10.57;;;9.43;;
757;SDS011;363;48.764;9.172;2023-06-10T00:35:29;9.20;;;8.40;;
757;SDS011;363;48.764;9.172;2023-06-10T00:37:55;9.20;;;8.40;;
757;SDS011;363;48.764;9.172;2023-06-10T00:40:20;9.47;;;8.77;;
757;SDS011;363;48.764;9.172;2023-06-10T00:42:46;9.47;;;8.70;;
757;SDS011;363;48.764;9.172;2023-06-10T00:45:11;10.07;;;9.30;;
757;SDS011;363;48.764;9.172;2023-06-10T00:47:37;9.30;;;8.50;;
757;SDS011;363;48.764;9.172;2023-06-10T00:50:04;9.48;;;8.70;;
757;SDS011;363;48.764;9.172;2023-06-10T00:52:30;9.02;;;8.32;;
757;SDS011;363;48.764;9.172;2023-06-10T00:54:56;9.77;;;9.07;;
757;SDS011;363;48.764;9.172;2023-06-10T00:57:21;9.83;;;8.93;;
757;SDS011;363;48.764;9.172;2023-06-10T00:59:47;9.57;;;8.77;;
757;SDS011;363;48.764;9.172;2023-06-10T01:02:14;9.90;;;9.13;;
757;SDS011;363;48.764;9.172;2023-06-10T01:04:40;10.70;;;9.77;;
757;SDS011;363;48.764;9.172;2023-06-10T01:15:12;9.55;;;8.85;;
757;SDS011;363;48.764;9.172;2023-06-10T01:17:57;9.75;;;9.05;;
757;SDS011;363;48.764;9.172;2023-06-10T01:20:25;9.55;;;8.75;;
757;SDS011;363;48.764;9.172;2023-06-10T01:22:54;8.75;;;8.15;;
757;SDS011;363;48.764;9.172;2023-06-10T01:25:21;9.60;;;8.90;;
757;SDS011;363;48.764;9.172;2023-06-10T01:28:04;8.88;;;8.18;;
757;SDS011;363;48.764;9.172;2023-06-10T01:33:35;10.23;;;9.27;;
757;SDS011;363;48.764;9.172;2023-06-10T01:36:02;9.98;;;9.13;;
757;SDS011;363;48.764;9.172;2023-06-10T01:38:30;9.85;;;9.15;;
757;SDS011;363;48.764;9.172;2023-06-10T01:41:10;9.00;;;8.30;;
757;SDS011;363;48.764;9.172;2023-06-10T01:43:38;10.10;;;9.30;;
757;SDS011;363;48.764;9.172;2023-06-10T01:46:04;9.27;;;8.57;;
757;SDS011;363;48.764;9.172;2023-06-10T01:48:31;10.27;;;9.50;;
757;SDS011;363;48.764;9.172;2023-06-10T01:50:57;10.63;;;9.55;;
757;SDS011;363;48.764;9.172;2023-06-10T01:53:23;10.63;;;9.90;;
757;SDS011;363;48.764;9.172;2023-06-10T01:55:48;10.83;;;9.73;;
757;SDS011;363;48.764;9.172;2023-06-10T01:58:14;9.80;;;9.00;;
757;SDS011;363;48.764;9.172;2023-06-10T02:00:40;10.57;;;9.57;;
757;SDS011;363;48.764;9.172;2023-06-10T02:03:05;9.60;;;8.80;;
757;SDS011;363;48.764;9.172;2023-06-10T02:05:31;10.83;;;10.03;;
757;SDS011;363;48.764;9.172;2023-06-10T02:07:57;10.60;;;9.70;;
757;SDS011;363;48.764;9.172;2023-06-10T02:10:22;8.87;;;8.17;;
757;SDS011;363;48.764;9.172;2023-06-10T02:12:48;11.07;;;10.17;;
757;SDS011;363;48.764;9.172;2023-06-10T02:15:13;10.50;;;9.63;;
757;SDS011;363;48.764;9.172;2023-06-10T02:17:39;9.30;;;8.53;;
757;SDS011;363;48.764;9.172;2023-06-10T02:20:05;9.90;;;9.10;;
757;SDS011;363;48.764;9.172;2023-06-10T02:22:35;10.50;;;9.63;;
757;SDS011;363;48.764;9.172;2023-06-10T02:25:01;9.50;;;8.80;;
757;SDS011;363;48.764;9.172;2023-06-10T02:27:27;10.43;;;9.63;;
757;SDS011;363;48.764;9.172;2023-06-10T02:29:52;10.10;;;9.30;;
757;SDS011;363;48.764;9.172;2023-06-10T02:32:18;9.60;;;8.90;;
757;SDS011;363;48.764;9.172;2023-06-10T02:34:43;9.83;;;9.00;;
757;SDS011;363;48.764;9.172;2023-06-10T02:37:09;10.57;;;9.70;;
757;SDS011;363;48.764;9.172;2023-06-10T02:39:35;10.87;;;9.87;;
757;SDS011;363;48.764;9.172;2023-06-10T02:42:00;9.57;;;8.87;;
757;SDS011;363;48.764;9.172;2023-06-10T02:44:26;8.90;;;8.17;;
757;SDS011;363;48.764;9.172;2023-06-10T02:46:51;10.63;;;9.73;;
757;SDS011;363;48.764;9.172;2023-06-10T02:49:17;9.30;;;8.60;;
757;SDS011;363;48.764;9.172;2023-06-10T02:51:42;9.93;;;8.70;;
757;SDS011;363;48.764;9.172;2023-06-10T02:54:09;9.65;;;8.95;;
757;SDS011;363;48.764;9.172;2023-06-10T02:56:35;9.97;;;9.13;;
757;SDS011;363;48.764;9.172;2023-06-10T02:59:01;9.75;;;8.95;;
757;SDS011;363;48.764;9.172;2023-06-10T03:01:27;10.60;;;9.80;;
757;SDS011;363;48.764;9.172;2023-06-10T03:03:52;10.03;;;9.17;;
757;SDS011;363;48.764;9.172;2023-06-10T03:06:18;10.67;;;9.77;;
757;SDS011;363;48.764;9.172;2023-06-10T03:08:44;10.40;;;9.50;;
757;SDS011;363;48.764;9.172;2023-06-10T03:11:10;10.73;;;9.82;;
757;SDS011;363;48.764;9.172;2023-06-10T03:13:36;10.03;;;9.13;;
757;SDS011;363;48.764;9.172;2023-06-10T03:16:03;10.10;;;9.20;;
757;SDS011;363;48.764;9.172;2023-06-10T03:18:29;10.90;;;9.80;;
757;SDS011;363;48.764;9.172;2023-06-10T03:20:55;10.03;;;9.13;;
757;SDS011;363;48.764;9.172;2023-06-10T03:23:21;10.63;;;9.68;;
757;SDS011;363;48.764;9.172;2023-06-10T03:25:47;11.00;;;10.10;;
757;SDS011;363;48.764;9.172;2023-06-10T03:28:13;10.63;;;9.73;;
757;SDS011;363;48.764;9.172;2023-06-10T03:30:39;10.80;;;10.00;;
757;SDS011;363;48.764;9.172;2023-06-10T03:33:04;10.10;;;9.30;;
757;SDS011;363;48.764;9.172;2023-06-10T03:35:30;10.40;;;9.50;;
757;SDS011;363;48.764;9.172;2023-06-10T03:37:57;10.25;;;9.35;;
757;SDS011;363;48.764;9.172;2023-06-10T03:40:23;10.07;;;9.20;;
757;SDS011;363;48.764;9.172;2023-06-10T03:42:48;9.50;;;8.70;;
757;SDS011;363;48.764;9.172;2023-06-10T03:45:14;10.30;;;9.50;;
757;SDS011;363;48.764;9.172;2023-06-10T03:47:39;10.10;;;9.30;;
757;SDS011;363;48.764;9.172;2023-06-10T03:50:06;9.77;;;8.87;;
757;SDS011;363;48.764;9.172;2023-06-10T03:52:35;10.52;;;9.73;;
757;SDS011;363;48.764;9.172;2023-06-10T03:55:02;9.55;;;8.80;;
757;SDS011;363;48.764;9.172;2023-06-10T03:57:28;11.77;;;10.77;;
757;SDS011;363;48.764;9.172;2023-06-10T03:59:54;8.70;;;8.10;;
757;SDS011;363;48.764;9.172;2023-06-10T04:02:21;9.38;;;8.68;;
757;SDS011;363;48.764;9.172;2023-06-10T04:04:47;10.05;;;9.15;;
757;SDS011;363;48.764;9.172;2023-06-10T04:07:13;9.30;;;8.60;;
757;SDS011;363;48.764;9.172;2023-06-10T04:09:39;9.63;;;8.83;;
757;SDS011;363;48.764;9.172;2023-06-10T04:12:04;9.53;;;8.73;;
757;SDS011;363;48.764;9.172;2023-06-10T04:14:33;9.93;;;9.23;;
757;SDS011;363;48.764;9.172;2023-06-10T04:17:01;10.15;;;9.35;;
757;SDS011;363;48.764;9.172;2023-06-10T04:19:27;9.30;;;8.50;;
757;SDS011;363;48.764;9.172;2023-06-10T04:21:53;9.00;;;8.10;;
757;SDS011;363;48.764;9.172;2023-06-10T04:24:19;8.27;;;7.53;;
757;SDS011;363;48.764;9.172;2023-06-10T04:26:44;8.73;;;8.03;;
757;SDS011;363;48.764;9.172;2023-06-10T04:29:10;8.93;;;8.13;;
757;SDS011;363;48.764;9.172;2023-06-10T04:31:35;9.37;;;8.50;;
757;SDS011;363;48.764;9.172;2023-06-10T04:34:01;9.03;;;8.13;;
757;SDS011;363;48.764;9.172;2023-06-10T04:36:26;9.90;;;9.00;;
757;SDS011;363;48.764;9.172;2023-06-10T04:38:54;8.85;;;8.15;;
757;SDS011;363;48.764;9.172;2023-06-10T04:41:19;8.93;;;8.23;;
757;SDS011;363;48.764;9.172;2023-06-10T04:43:45;8.97;;;8.17;;
757;SDS011;363;48.764;9.172;2023-06-10T04:48:03;8.98;;;8.25;;
757;SDS011;363;48.764;9.172;2023-06-10T04:50:29;8.53;;;7.87;;
757;SDS011;363;48.764;9.172;2023-06-10T04:52:55;8.07;;;7.40;;
757;SDS011;363;48.764;9.172;2023-06-10T04:55:22;10.10;;;9.30;;
757;SDS011;363;48.764;9.172;2023-06-10T04:57:48;9.40;;;8.60;;
757;SDS011;363;48.764;9.172;2023-06-10T05:00:13;9.90;;;9.10;;
757;SDS011;363;48.764;9.172;2023-06-10T05:02:39;8.07;;;7.53;;
757;SDS011;363;48.764;9.172;2023-06-10T05:05:05;8.50;;;7.80;;
757;SDS011;363;48.764;9.172;2023-06-10T05:07:31;8.65;;;8.05;;
757;SDS011;363;48.764;9.172;2023-06-10T05:09:56;9.27;;;8.47;;
757;SDS011;363;48.764;9.172;2023-06-10T05:12:22;9.30;;;8.50;;
757;SDS011;363;48.764;9.172;2023-06-10T05:14:48;9.17;;;8.43;;
757;SDS011;363;48.764;9.172;2023-06-10T05:17:13;9.07;;;8.27;;
757;SDS011;363;48.764;9.172;2023-06-10T05:19:39;9.00;;;8.23;;
757;SDS011;363;48.764;9.172;2023-06-10T05:22:04;9.10;;;8.20;;
757;SDS011;363;48.764;9.172;2023-06-10T05:24:30;8.83;;;8.13;;
757;SDS011;363;48.764;9.172;2023-06-10T05:26:56;8.60;;;7.90;;
757;SDS011;363;48.764;9.172;2023-06-10T05:29:21;8.63;;;7.93;;
757;SDS011;363;48.764;9.172;2023-06-10T05:31:47;10.05;;;9.20;;
757;SDS011;363;48.764;9.172;2023-06-10T05:34:13;8.63;;;7.93;;
757;SDS011;363;48.764;9.172;2023-06-10T05:36:38;8.13;;;7.53;;
757;SDS011;363;48.764;9.172;2023-06-10T05:39:04;8.80;;;8.10;;
757;SDS011;363;48.764;9.172;2023-06-10T05:41:30;8.17;;;7.57;;
757;SDS011;363;48.764;9.172;2023-06-10T05:43:56;9.43;;;8.57;;
757;SDS011;363;48.764;9.172;2023-06-10T05:46:21;8.40;;;7.80;;
757;SDS011;363;48.764;9.172;2023-06-10T05:48:47;8.17;;;7.43;;
757;SDS011;363;48.764;9.172;2023-06-10T05:51:12;8.13;;;7.43;;
757;SDS011;363;48.764;9.172;2023-06-10T05:53:38;9.47;;;8.60;;
757;SDS011;363;48.764;9.172;2023-06-10T05:56:04;8.43;;;7.72;;
757;SDS011;363;48.764;9.172;2023-06-10T05:58:30;7.17;;;6.50;;
757;SDS011;363;48.764;9.172;2023-06-10T06:00:56;7.43;;;6.87;;
757;SDS011;363;48.764;9.172;2023-06-10T06:03:21;7.60;;;6.93;;
757;SDS011;363;48.764;9.172;2023-06-10T06:05:47;7.50;;;6.90;;
757;SDS011;363;48.764;9.172;2023-06-10T06:08:12;7.80;;;7.17;;
757;SDS011;363;48.764;9.172;2023-06-10T06:10:43;7.53;;;6.93;;
757;SDS011;363;48.764;9.172;2023-06-10T06:13:10;7.07;;;6.57;;
757;SDS011;363;48.764;9.172;2023-06-10T06:15:35;7.33;;;6.63;;
757;SDS011;363;48.764;9.172;2023-06-10T06:18:01;7.00;;;6.50;;
757;SDS011;363;48.764;9.172;2023-06-10T06:20:27;7.33;;;6.73;;
757;SDS011;363;48.764;9.172;2023-06-10T06:22:52;6.83;;;6.33;;
757;SDS011;363;48.764;9.172;2023-06-10T06:25:18;7.40;;;6.30;;
757;SDS011;363;48.764;9.172;2023-06-10T06:27:43;6.83;;;6.30;;
757;SDS011;363;48.764;9.172;2023-06-10T06:30:10;7.55;;;6.95;;
757;SDS011;363;48.764;9.172;2023-06-10T06:32:36;7.10;;;6.50;;
757;SDS011;363;48.764;9.172;2023-06-10T06:35:02;6.90;;;6.35;;
757;SDS011;363;48.764;9.172;2023-06-10T06:37:30;7.90;;;6.80;;
757;SDS011;363;48.764;9.172;2023-06-10T06:39:57;6.80;;;6.27;;
757;SDS011;363;48.764;9.172;2023-06-10T06:42:23;6.90;;;6.40;;
757;SDS011;363;48.764;9.172;2023-06-10T06:44:48;5.93;;;5.53;;
757;SDS011;363;48.764;9.172;2023-06-10T06:47:14;7.10;;;6.60;;
757;SDS011;363;48.764;9.172;2023-06-10T06:49:42;7.57;;;6.85;;
757;SDS011;363;48.764;9.172;2023-06-10T06:52:08;8.20;;;7.07;;
757;SDS011;363;48.764;9.172;2023-06-10T06:54:34;6.83;;;6.33;;
757;SDS011;363;48.764;9.172;2023-06-10T06:57:00;6.80;;;6.30;;
757;SDS011;363;48.764;9.172;2023-06-10T06:59:25;8.83;;;6.50;;
757;SDS011;363;48.764;9.172;2023-06-10T07:01:51;6.07;;;5.57;;
757;SDS011;363;48.764;9.172;2023-06-10T07:04:19;7.13;;;6.53;;
757;SDS011;363;48.764;9.172;2023-06-10T07:06:46;6.43;;;5.70;;
757;SDS011;363;48.764;9.172;2023-06-10T07:09:12;6.00;;;5.50;;
757;SDS011;363;48.764;9.172;2023-06-10T07:11:38;6.73;;;6.23;;
757;SDS011;363;48.764;9.172;2023-06-10T07:14:04;5.50;;;5.10;;
757;SDS011;363;48.764;9.172;2023-06-10T07:16:30;5.90;;;5.50;;
757;SDS011;363;48.764;9.172;2023-06-10T07:18:55;5.43;;;5.03;;
757;SDS011;363;48.764;9.172;2023-06-10T07:21:21;6.23;;;5.73;;
757;SDS011;363;48.764;9.172;2023-06-10T07:23:48;5.57;;;5.13;;
757;SDS011;363;48.764;9.172;2023-06-10T07:26:14;6.27;;;5.77;;
757;SDS011;363;48.764;9.172;2023-06-10T07:28:40;6.27;;;5.87;;
757;SDS011;363;48.764;9.172;2023-06-10T07:31:06;6.37;;;5.87;;
757;SDS011;363;48.764;9.172;2023-06-10T07:33:33;6.23;;;5.63;;
757;SDS011;363;48.764;9.172;2023-06-10T07:35:59;5.60;;;5.30;;
757;SDS011;363;48.764;9.172;2023-06-10T07:38:25;6.73;;;6.23;;
757;SDS011;363;48.764;9.172;2023-06-10T07:40:51;5.90;;;5.40;;
757;SDS011;363;48.764;9.172;2023-06-10T07:43:17;6.30;;;5.90;;
757;SDS011;363;48.764;9.172;2023-06-10T07:45:43;5.67;;;5.37;;
757;SDS011;363;48.764;9.172;2023-06-10T07:48:09;5.87;;;5.47;;
757;SDS011;363;48.764;9.172;2023-06-10T07:50:35;6.07;;;5.67;;
757;SDS011;363;48.764;9.172;2023-06-10T07:53:00;6.07;;;5.67;;
757;SDS011;363;48.764;9.172;2023-06-10T07:55:26;6.00;;;5.60;;
757;SDS011;363;48.764;9.172;2023-06-10T07:57:52;6.73;;;6.13;;
757;SDS011;363;48.764;9.172;2023-06-10T08:00:19;6.63;;;6.13;;
757;SDS011;363;48.764;9.172;2023-06-10T08:02:45;6.83;;;6.20;;
757;SDS011;363;48.764;9.172;2023-06-10T08:05:10;7.97;;;7.20;;
757;SDS011;363;48.764;9.172;2023-06-10T08:07:36;5.97;;;5.60;;
757;SDS011;363;48.764;9.172;2023-06-10T08:10:02;6.73;;;6.30;;
757;SDS011;363;48.764;9.172;2023-06-10T08:12:29;7.67;;;6.27;;
757;SDS011;363;48.764;9.172;2023-06-10T08:14:54;6.63;;;6.13;;
757;SDS011;363;48.764;9.172;2023-06-10T08:17:20;7.63;;;6.90;;
757;SDS011;363;48.764;9.172;2023-06-10T08:19:46;6.53;;;6.10;;
757;SDS011;363;48.764;9.172;2023-06-10T08:22:12;6.60;;;6.20;;
757;SDS011;363;48.764;9.172;2023-06-10T08:24:37;6.13;;;5.73;;
757;SDS011;363;48.764;9.172;2023-06-10T08:27:03;6.73;;;6.27;;
757;SDS011;363;48.764;9.172;2023-06-10T08:29:30;6.20;;;5.80;;
757;SDS011;363;48.764;9.172;2023-06-10T08:31:56;7.03;;;6.53;;
757;SDS011;363;48.764;9.172;2023-06-10T08:34:22;6.20;;;5.80;;
757;SDS011;363;48.764;9.172;2023-06-10T08:36:48;5.77;;;5.37;;
757;SDS011;363;48.764;9.172;2023-06-10T08:39:18;6.50;;;6.10;;
757;SDS011;363;48.764;9.172;2023-06-10T08:41:45;5.37;;;5.07;;
757;SDS011;363;48.764;9.172;2023-06-10T08:44:54;6.33;;;5.90;;
757;SDS011;363;48.764;9.172;2023-06-10T08:47:22;6.70;;;6.17;;
757;SDS011;363;48.764;9.172;2023-06-10T08:49:48;6.30;;;5.90;;
757;SDS011;363;48.764;9.172;2023-06-10T08:52:14;6.40;;;6.00;;
757;SDS011;363;48.764;9.172;2023-06-10T08:54:48;6.00;;;5.60;;
757;SDS011;363;48.764;9.172;2023-06-10T08:57:19;5.83;;;5.43;;
757;SDS011;363;48.764;9.172;2023-06-10T08:59:46;5.40;;;5.03;;
757;SDS011;363;48.764;9.172;2023-06-10T09:02:12;6.00;;;5.60;;
757;SDS011;363;48.764;9.172;2023-06-10T09:04:40;5.73;;;5.33;;
757;SDS011;363;48.764;9.172;2023-06-10T09:07:08;5.60;;;5.30;;
757;SDS011;363;48.764;9.172;2023-06-10T09:09:34;5.77;;;5.47;;
757;SDS011;363;48.764;9.172;2023-06-10T09:12:01;5.60;;;5.10;;
757;SDS011;363;48.764;9.172;2023-06-10T09:14:26;5.60;;;5.30;;
757;SDS011;363;48.764;9.172;2023-06-10T09:16:52;5.50;;;5.20;;
757;SDS011;363;48.764;9.172;2023-06-10T09:19:21;6.00;;;5.67;;
757;SDS011;363;48.764;9.172;2023-06-10T09:21:48;5.30;;;5.00;;
757;SDS011;363;48.764;9.172;2023-06-10T09:24:13;5.63;;;5.13;;
757;SDS011;363;48.764;9.172;2023-06-10T09:26:39;6.00;;;5.60;;
757;SDS011;363;48.764;9.172;2023-06-10T09:29:05;5.60;;;5.30;;
757;SDS011;363;48.764;9.172;2023-06-10T09:31:34;5.47;;;5.17;;
757;SDS011;363;48.764;9.172;2023-06-10T09:36:40;5.37;;;5.03;;
757;SDS011;363;48.764;9.172;2023-06-10T09:39:16;6.07;;;5.67;;
757;SDS011;363;48.764;9.172;2023-06-10T09:41:43;6.20;;;5.80;;
757;SDS011;363;48.764;9.172;2023-06-10T09:44:14;5.47;;;5.07;;
757;SDS011;363;48.764;9.172;2023-06-10T09:46:41;6.77;;;6.10;;
757;SDS011;363;48.764;9.172;2023-06-10T09:49:08;6.13;;;5.73;;
757;SDS011;363;48.764;9.172;2023-06-10T09:51:33;6.37;;;5.87;;
757;SDS011;363;48.764;9.172;2023-06-10T09:53:59;5.53;;;5.13;;
757;SDS011;363;48.764;9.172;2023-06-10T09:56:37;5.40;;;5.10;;
757;SDS011;363;48.764;9.172;2023-06-10T09:59:05;6.20;;;5.80;;
757;SDS011;363;48.764;9.172;2023-06-10T10:01:31;6.00;;;5.60;;
757;SDS011;363;48.764;9.172;2023-06-10T10:03:58;5.20;;;4.90;;
757;SDS011;363;48.764;9.172;2023-06-10T10:06:25;5.83;;;5.43;;
757;SDS011;363;48.764;9.172;2023-06-10T10:08:51;6.57;;;5.90;;
757;SDS011;363;48.764;9.172;2023-06-10T10:11:18;5.77;;;5.37;;
757;SDS011;363;48.764;9.172;2023-06-10T10:13:47;5.93;;;5.53;;
757;SDS011;363;48.764;9.172;2023-06-10T10:16:19;6.53;;;6.13;;
757;SDS011;363;48.764;9.172;2023-06-10T10:19:28;6.20;;;5.80;;
757;SDS011;363;48.764;9.172;2023-06-10T10:22:04;6.80;;;6.30;;
757;SDS011;363;48.764;9.172;2023-06-10T10:24:36;6.73;;;6.30;;
757;SDS011;363;48.764;9.172;2023-06-10T10:27:07;6.37;;;5.93;;
757;SDS011;363;48.764;9.172;2023-06-10T10:29:39;6.37;;;5.87;;
757;SDS011;363;48.764;9.172;2023-06-10T10:32:06;6.60;;;5.87;;
757;SDS011;363;48.764;9.172;2023-06-10T10:37:14;6.00;;;5.50;;
757;SDS011;363;48.764;9.172;2023-06-10T10:39:40;6.80;;;6.40;;
757;SDS011;363;48.764;9.172;2023-06-10T10:42:07;6.57;;;6.00;;
757;SDS011;363;48.764;9.172;2023-06-10T10:44:35;6.50;;;6.00;;
757;SDS011;363;48.764;9.172;2023-06-10T10:47:03;9.67;;;6.70;;
757;SDS011;363;48.764;9.172;2023-06-10T10:49:30;6.40;;;5.90;;
757;SDS011;363;48.764;9.172;2023-06-10T10:51:57;6.13;;;5.73;;
757;SDS011;363;48.764;9.172;2023-06-10T10:54:31;5.90;;;5.50;;
757;SDS011;363;48.764;9.172;2023-06-10T10:57:14;6.47;;;5.90;;
757;SDS011;363;48.764;9.172;2023-06-10T11:02:16;6.13;;;5.73;;
757;SDS011;363;48.764;9.172;2023-06-10T11:04:46;6.13;;;5.63;;
757;SDS011;363;48.764;9.172;2023-06-10T11:07:13;6.13;;;5.63;;
757;SDS011;363;48.764;9.172;2023-06-10T11:09:57;5.80;;;5.40;;
757;SDS011;363;48.764;9.172;2023-06-10T11:12:26;6.20;;;5.80;;
757;SDS011;363;48.764;9.172;2023-06-10T11:15:10;6.00;;;5.60;;
757;SDS011;363;48.764;9.172;2023-06-10T11:29:03;7.80;;;7.20;;
757;SDS011;363;48.764;9.172;2023-06-10T11:31:35;7.60;;;7.00;;
757;SDS011;363;48.764;9.172;2023-06-10T11:34:05;7.40;;;6.90;;
757;SDS011;363;48.764;9.172;2023-06-10T11:36:32;6.73;;;6.27;;
757;SDS011;363;48.764;9.172;2023-06-10T11:39:05;6.80;;;6.30;;
757;SDS011;363;48.764;9.172;2023-06-10T11:41:31;6.80;;;6.20;;
757;SDS011;363;48.764;9.172;2023-06-10T11:44:07;7.37;;;6.80;;
757;SDS011;363;48.764;9.172;2023-06-10T11:46:36;6.57;;;6.17;;
757;SDS011;363;48.764;9.172;2023-06-10T11:49:03;6.30;;;5.90;;
757;SDS011;363;48.764;9.172;2023-06-10T11:51:32;7.00;;;6.40;;
757;SDS011;363;48.764;9.172;2023-06-10T11:54:02;6.20;;;5.80;;
757;SDS011;363;48.764;9.172;2023-06-10T11:56:29;7.63;;;7.13;;
757;SDS011;363;48.764;9.172;2023-06-10T11:58:56;7.50;;;6.90;;
757;SDS011;363;48.764;9.172;2023-06-10T12:01:32;5.80;;;5.40;;
757;SDS011;363;48.764;9.172;2023-06-10T12:04:00;6.60;;;6.10;;
757;SDS011;363;48.764;9.172;2023-06-10T12:06:27;6.77;;;6.17;;
757;SDS011;363;48.764;9.172;2023-06-10T12:12:00;7.43;;;6.90;;
757;SDS011;363;48.764;9.172;2023-06-10T12:17:23;6.07;;;5.67;;
757;SDS011;363;48.764;9.172;2023-06-10T12:19:55;7.20;;;6.70;;
757;SDS011;363;48.764;9.172;2023-06-10T12:22:21;6.70;;;6.20;;
757;SDS011;363;48.764;9.172;2023-06-10T12:25:01;6.50;;;6.10;;
757;SDS011;363;48.764;9.172;2023-06-10T12:27:28;7.53;;;6.97;;
757;SDS011;363;48.764;9.172;2023-06-10T12:29:55;7.60;;;6.37;;
757;SDS011;363;48.764;9.172;2023-06-10T12:32:34;6.90;;;6.40;;
757;SDS011;363;48.764;9.172;2023-06-10T12:35:03;6.43;;;5.93;;
757;SDS011;363;48.764;9.172;2023-06-10T12:37:30;6.00;;;5.60;;
757;SDS011;363;48.764;9.172;2023-06-10T12:39:59;6.37;;;5.87;;
757;SDS011;363;48.764;9.172;2023-06-10T12:42:28;6.60;;;6.10;;
757;SDS011;363;48.764;9.172;2023-06-10T12:44:55;5.73;;;5.43;;
757;SDS011;363;48.764;9.172;2023-06-10T12:47:35;6.77;;;6.27;;
757;SDS011;363;48.764;9.172;2023-06-10T12:50:03;6.07;;;5.57;;
757;SDS011;363;48.764;9.172;2023-06-10T12:52:30;6.57;;;6.07;;
757;SDS011;363;48.764;9.172;2023-06-10T12:54:57;6.03;;;5.63;;
757;SDS011;363;48.764;9.172;2023-06-10T12:57:23;5.93;;;5.53;;
757;SDS011;363;48.764;9.172;2023-06-10T12:59:49;6.23;;;5.73;;
757;SDS011;363;48.764;9.172;2023-06-10T13:02:17;6.60;;;6.07;;
757;SDS011;363;48.764;9.172;2023-06-10T13:04:44;6.03;;;5.60;;
757;SDS011;363;48.764;9.172;2023-06-10T13:07:10;6.07;;;5.47;;
757;SDS011;363;48.764;9.172;2023-06-10T13:09:36;6.47;;;5.97;;
757;SDS011;363;48.764;9.172;2023-06-10T13:12:02;6.40;;;5.90;;
757;SDS011;363;48.764;9.172;2023-06-10T13:14:28;5.93;;;5.33;;
757;SDS011;363;48.764;9.172;2023-06-10T13:16:54;6.30;;;5.80;;
757;SDS011;363;48.764;9.172;2023-06-10T13:19:20;5.93;;;5.53;;
757;SDS011;363;48.764;9.172;2023-06-10T13:21:46;5.83;;;5.33;;
757;SDS011;363;48.764;9.172;2023-06-10T13:24:13;6.20;;;5.60;;
757;SDS011;363;48.764;9.172;2023-06-10T13:26:38;6.20;;;5.80;;
757;SDS011;363;48.764;9.172;2023-06-10T13:29:04;6.57;;;6.00;;
757;SDS011;363;48.764;9.172;2023-06-10T13:31:30;6.23;;;5.73;;
757;SDS011;363;48.764;9.172;2023-06-10T13:33:57;6.40;;;5.80;;
757;SDS011;363;48.764;9.172;2023-06-10T13:36:23;6.27;;;5.87;;
757;SDS011;363;48.764;9.172;2023-06-10T13:38:49;6.13;;;5.53;;
757;SDS011;363;48.764;9.172;2023-06-10T13:41:14;6.03;;;5.63;;
757;SDS011;363;48.764;9.172;2023-06-10T13:43:40;7.90;;;7.30;;
757;SDS011;363;48.764;9.172;2023-06-10T13:46:06;5.80;;;5.30;;
757;SDS011;363;48.764;9.172;2023-06-10T13:48:31;5.27;;;4.97;;
757;SDS011;363;48.764;9.172;2023-06-10T13:50:57;5.87;;;5.47;;
757;SDS011;363;48.764;9.172;2023-06-10T13:53:24;5.90;;;5.50;;
757;SDS011;363;48.764;9.172;2023-06-10T13:55:50;5.60;;;5.20;;
757;SDS011;363;48.764;9.172;2023-06-10T13:58:15;5.90;;;5.50;;
757;SDS011;363;48.764;9.172;2023-06-10T14:00:41;5.77;;;5.20;;
757;SDS011;363;48.764;9.172;2023-06-10T14:03:06;5.60;;;5.20;;
757;SDS011;363;48.764;9.172;2023-06-10T14:05:32;5.63;;;5.23;;
757;SDS011;363;48.764;9.172;2023-06-10T14:07:58;5.00;;;4.60;;
757;SDS011;363;48.764;9.172;2023-06-10T14:10:24;5.57;;;5.23;;
757;SDS011;363;48.764;9.172;2023-06-10T14:12:49;5.67;;;5.23;;
757;SDS011;363;48.764;9.172;2023-06-10T14:15:16;5.87;;;5.37;;
757;SDS011;363;48.764;9.172;2023-06-10T14:17:42;5.67;;;5.27;;
757;SDS011;363;48.764;9.172;2023-06-10T14:20:08;5.50;;;5.10;;
757;SDS011;363;48.764;9.172;2023-06-10T14:22:34;6.20;;;5.70;;
757;SDS011;363;48.764;9.172;2023-06-10T14:24:59;5.40;;;5.00;;
757;SDS011;363;48.764;9.172;2023-06-10T14:27:25;5.43;;;5.10;;
757;SDS011;363;48.764;9.172;2023-06-10T14:29:51;6.10;;;5.47;;
757;SDS011;363;48.764;9.172;2023-06-10T14:32:16;6.10;;;5.70;;
757;SDS011;363;48.764;9.172;2023-06-10T14:34:42;5.53;;;5.03;;
757;SDS011;363;48.764;9.172;2023-06-10T14:37:09;5.50;;;5.10;;
757;SDS011;363;48.764;9.172;2023-06-10T14:39:35;5.03;;;4.67;;
757;SDS011;363;48.764;9.172;2023-06-10T14:42:01;5.20;;;4.80;;
757;SDS011;363;48.764;9.172;2023-06-10T14:44:26;5.50;;;5.10;;
757;SDS011;363;48.764;9.172;2023-06-10T14:46:52;5.07;;;4.77;;
757;SDS011;363;48.764;9.172;2023-06-10T14:49:18;5.47;;;5.07;;
757;SDS011;363;48.764;9.172;2023-06-10T14:51:43;4.80;;;4.50;;
757;SDS011;363;48.764;9.172;2023-06-10T14:54:09;5.97;;;5.57;;
757;SDS011;363;48.764;9.172;2023-06-10T14:56:35;6.63;;;6.13;;
757;SDS011;363;48.764;9.172;2023-06-10T14:59:01;6.30;;;5.90;;
757;SDS011;363;48.764;9.172;2023-06-10T15:01:26;6.10;;;5.70;;
757;SDS011;363;48.764;9.172;2023-06-10T15:03:52;6.40;;;5.90;;
757;SDS011;363;48.764;9.172;2023-06-10T15:06:17;6.20;;;5.70;;
757;SDS011;363;48.764;9.172;2023-06-10T15:08:46;6.57;;;6.17;;
757;SDS011;363;48.764;9.172;2023-06-10T15:11:13;6.50;;;6.03;;
757;SDS011;363;48.764;9.172;2023-06-10T15:13:39;5.63;;;5.23;;
757;SDS011;363;48.764;9.172;2023-06-10T15:16:05;6.40;;;5.90;;
757;SDS011;363;48.764;9.172;2023-06-10T15:18:31;6.50;;;6.00;;
757;SDS011;363;48.764;9.172;2023-06-10T15:20:57;6.27;;;5.87;;
757;SDS011;363;48.764;9.172;2023-06-10T15:23:22;6.27;;;5.80;;
757;SDS011;363;48.764;9.172;2023-06-10T15:25:48;5.93;;;5.53;;
757;SDS011;363;48.764;9.172;2023-06-10T15:28:14;6.30;;;5.90;;
757;SDS011;363;48.764;9.172;2023-06-10T15:30:39;6.37;;;5.97;;
757;SDS011;363;48.764;9.172;2023-06-10T15:33:05;6.67;;;6.27;;
757;SDS011;363;48.764;9.172;2023-06-10T15:35:31;15.10;;;6.57;;
757;SDS011;363;48.764;9.172;2023-06-10T15:37:57;6.17;;;5.77;;
757;SDS011;363;48.764;9.172;2023-06-10T15:40:23;6.40;;;5.97;;
757;SDS011;363;48.764;9.172;2023-06-10T15:42:48;6.20;;;5.80;;
757;SDS011;363;48.764;9.172;2023-06-10T15:45:14;5.70;;;5.30;;
757;SDS011;363;48.764;9.172;2023-06-10T15:47:40;6.77;;;6.37;;
757;SDS011;363;48.764;9.172;2023-06-10T15:50:06;6.47;;;6.03;;
757;SDS011;363;48.764;9.172;2023-06-10T15:52:33;6.43;;;6.03;;
757;SDS011;363;48.764;9.172;2023-06-10T15:54:58;5.80;;;5.40;;
757;SDS011;363;48.764;9.172;2023-06-10T15:57:24;6.73;;;6.33;;
757;SDS011;363;48.764;9.172;2023-06-10T15:59:49;6.37;;;5.97;;
757;SDS011;363;48.764;9.172;2023-06-10T16:02:15;7.50;;;6.10;;
757;SDS011;363;48.764;9.172;2023-06-10T16:04:41;5.83;;;5.40;;
757;SDS011;363;48.764;9.172;2023-06-10T16:07:09;6.60;;;5.40;;
757;SDS011;363;48.764;9.172;2023-06-10T16:09:35;5.30;;;4.80;;
757;SDS011;363;48.764;9.172;2023-06-10T16:12:01;5.03;;;4.73;;
757;SDS011;363;48.764;9.172;2023-06-10T16:14:27;5.07;;;4.67;;
757;SDS011;363;48.764;9.172;2023-06-10T16:16:53;6.00;;;4.80;;
757;SDS011;363;48.764;9.172;2023-06-10T16:19:22;5.30;;;4.90;;